Normand Flipper — 9V6929 — position and weather

sailwx.info

Track history (hours):
 
Tides and Currents Weather Stations Pressure Air Temp Water Temp Dewpoint Dewpoint Depression Visibility Wind Speed Wind Dir Waves Ship Positions

Normand Flipper

Last reported at 2017-Nov-22 21:58 UTC. Time now 2017-Nov-22 22:13 UTC.
Position N 57°30' W 001°47'.

Length 89 m; draft 5 m.

Type: Other ship. MMSI: 566522000.

Date/timePositionNaut miles runAvg speedWind from/ knotsBaromVisibWave heightAir tempDewpointWater temp
2017-Nov-22 21:58N 57°30' W 001°47'0 0.0
2017-Nov-22 21:28N 57°30' W 001°47'0 0.0
2017-Nov-22 20:58N 57°30' W 001°47'0 0.0
2017-Nov-22 20:28N 57°30' W 001°47'0 0.0
2017-Nov-22 19:58N 57°30' W 001°47'0 0.0
2017-Nov-22 19:19N 57°30' W 001°47'  
2017-Nov-20 00:30N 57°26' W 001°45'0 0.0
2017-Nov-20 00:01N 57°26' W 001°45'0 0.0
2017-Nov-19 23:30N 57°26' W 001°45'0 0.0
2017-Nov-19 23:01N 57°26' W 001°45'0 0.0
2017-Nov-19 22:30N 57°26' W 001°45'0 0.0
2017-Nov-19 22:01N 57°26' W 001°45'1 1.2
2017-Nov-19 21:31N 57°26' W 001°45'3 6.2
2017-Nov-19 21:00N 57°23' W 001°46'4 7.0
2017-Nov-19 20:27N 57°19' W 001°49'3 7.6
2017-Nov-19 20:00N 57°16' W 001°52'4 7.9
2017-Nov-19 19:30N 57°13' W 001°55'4 7.3
2017-Nov-19 19:01N 57°10' W 002°00'3 5.8
2017-Nov-19 18:31N 57°08' W 002°05'0 0.3
2017-Nov-19 17:59N 57°08' W 002°05'0 0.0
2017-Nov-19 17:29N 57°08' W 002°05'0 0.0
2017-Nov-19 16:59N 57°08' W 002°05'0 0.0
2017-Nov-19 16:29N 57°08' W 002°05'0 0.0
2017-Nov-19 15:59N 57°08' W 002°05'0 0.0
2017-Nov-19 15:29N 57°08' W 002°05'0 0.0
2017-Nov-19 14:59N 57°08' W 002°05'0 0.5
2017-Nov-19 14:30N 57°08' W 002°04'3 6.0
2017-Nov-19 14:00N 57°10' W 002°00'1 1.0
2017-Nov-19 13:28N 57°11' W 001°60'1 1.4
2017-Nov-19 12:55N 57°12' W 001°60'0 0.1
2017-Nov-19 12:28N 57°12' W 001°60'0 0.0
2017-Nov-19 11:58N 57°12' W 001°60'0 0.0
2017-Nov-19 11:28N 57°12' W 001°60'0 0.0
2017-Nov-19 10:58N 57°12' W 001°60'0 0.0
2017-Nov-19 10:28N 57°12' W 001°60'0 0.0
2017-Nov-19 09:58N 57°12' W 001°60'0 0.0
2017-Nov-19 09:28N 57°12' W 001°60'0 0.0
2017-Nov-19 08:58N 57°12' W 001°60'0 0.0
2017-Nov-19 08:28N 57°12' W 001°60'0 0.0
2017-Nov-19 07:58N 57°12' W 001°60'0 0.0
2017-Nov-19 07:28N 57°12' W 001°60'0 0.0
2017-Nov-19 06:58N 57°12' W 001°60'0 0.0
2017-Nov-19 06:28N 57°12' W 001°60'0 0.0
2017-Nov-19 05:58N 57°12' W 001°60'0 0.0
2017-Nov-19 05:28N 57°12' W 001°60'0 0.0
2017-Nov-19 04:58N 57°12' W 001°60'0 0.0
2017-Nov-19 04:28N 57°12' W 001°60'0 0.0
2017-Nov-19 03:58N 57°12' W 001°60'0 0.1
2017-Nov-19 03:28N 57°12' W 001°60'0 0.1
2017-Nov-19 02:58N 57°12' W 001°60'0 0.0
2017-Nov-19 02:28N 57°12' W 001°60'0 0.0
2017-Nov-19 01:58N 57°12' W 001°60'0 0.0
2017-Nov-19 01:28N 57°12' W 001°60'0 0.0
2017-Nov-19 00:58N 57°12' W 001°60'0 0.0
2017-Nov-19 00:28N 57°12' W 001°60'0 0.0
2017-Nov-18 23:58N 57°12' W 001°60'0 0.0
2017-Nov-18 23:28N 57°12' W 001°60'0 0.0
2017-Nov-18 22:58N 57°12' W 001°60'0 0.0
2017-Nov-18 22:28N 57°12' W 001°60'0 0.0
2017-Nov-18 21:58N 57°12' W 001°60'0 0.0
2017-Nov-18 21:28N 57°12' W 001°60'0 0.0
2017-Nov-18 20:58N 57°12' W 001°60'0 0.0
2017-Nov-18 20:28N 57°12' W 001°60'0 0.0
2017-Nov-18 19:58N 57°12' W 001°60'0 0.1
2017-Nov-18 19:28N 57°12' W 001°60'0 0.0
2017-Nov-18 18:58N 57°12' W 001°60'0 0.0
2017-Nov-18 18:28N 57°12' W 001°60'0 0.0
2017-Nov-18 17:58N 57°12' W 001°60'0 0.0
2017-Nov-18 17:28N 57°12' W 001°60'0 0.0
2017-Nov-18 16:58N 57°12' W 001°60'0 0.0
2017-Nov-18 16:25N 57°12' W 001°60'0 0.0
2017-Nov-18 15:58N 57°12' W 001°60'0 0.0
2017-Nov-18 15:28N 57°12' W 001°60'0 0.0
2017-Nov-18 14:58N 57°12' W 001°60'0 0.0
2017-Nov-18 14:28N 57°12' W 001°60'0 0.1
2017-Nov-18 13:58N 57°12' W 001°60'0 0.0
2017-Nov-18 13:28N 57°12' W 001°60'0 0.0
2017-Nov-18 12:58N 57°12' W 001°60'0 0.0
2017-Nov-18 12:28N 57°12' W 001°60'0 0.0
2017-Nov-18 11:58N 57°12' W 001°60'0 0.0
2017-Nov-18 11:28N 57°12' W 001°60'0 0.0
2017-Nov-18 10:58N 57°12' W 001°60'0 0.0
2017-Nov-18 10:28N 57°12' W 001°60'0 0.0
2017-Nov-18 09:58N 57°12' W 001°60'0 0.0
2017-Nov-18 09:25N 57°12' W 001°60'0 0.1
2017-Nov-18 08:58N 57°12' W 001°60'0 0.0
2017-Nov-18 08:28N 57°12' W 001°60'0 0.1
2017-Nov-18 07:58N 57°12' W 001°60'0 0.0
2017-Nov-18 07:28N 57°12' W 001°60'0 0.0
2017-Nov-18 06:58N 57°12' W 001°60'0 0.0
2017-Nov-18 06:28N 57°12' W 001°60'0 0.0
2017-Nov-18 05:58N 57°12' W 001°60'0 0.0
2017-Nov-18 05:28N 57°12' W 001°60'0 0.0
2017-Nov-18 04:58N 57°12' W 001°60'0 0.0
2017-Nov-18 04:28N 57°12' W 001°60'0 0.0
2017-Nov-18 03:58N 57°12' W 001°60'0 0.0
2017-Nov-18 03:28N 57°12' W 001°60'0 0.0
2017-Nov-18 02:58N 57°12' W 001°60'0 0.0
2017-Nov-18 02:28N 57°12' W 001°60'0 0.1
2017-Nov-18 01:58N 57°12' W 001°60'0 0.1
2017-Nov-18 01:28N 57°12' W 001°60'0 0.0
2017-Nov-18 00:58N 57°12' W 001°60'0 0.0
2017-Nov-18 00:28N 57°12' W 001°60'0 0.0
2017-Nov-17 23:58N 57°12' W 001°60'0 0.0
2017-Nov-17 23:28N 57°12' W 001°60'0 0.0
2017-Nov-17 22:58N 57°12' W 001°60'0 0.0
2017-Nov-17 22:28N 57°12' W 001°60'0 0.0
2017-Nov-17 21:58N 57°12' W 001°60'0 0.0
2017-Nov-17 21:28N 57°12' W 001°60'0 0.0
2017-Nov-17 20:58N 57°12' W 001°60'0 0.0
2017-Nov-17 20:28N 57°12' W 001°60'0 0.0
2017-Nov-17 19:58N 57°12' W 001°60'0 0.0
2017-Nov-17 19:28N 57°12' W 001°60'0 0.0
2017-Nov-17 18:58N 57°12' W 001°60'0 0.0
2017-Nov-17 18:28N 57°12' W 001°60'0 0.0
2017-Nov-17 17:58N 57°12' W 001°60'0 0.0
2017-Nov-17 17:28N 57°12' W 001°60'0 0.0
2017-Nov-17 16:58N 57°12' W 001°60'0 0.0
2017-Nov-17 16:28N 57°12' W 001°60'0 0.0
2017-Nov-17 15:58N 57°12' W 001°60'0 0.0
2017-Nov-17 15:28N 57°12' W 001°60'0 0.0
2017-Nov-17 14:58N 57°12' W 001°60'0 0.0
2017-Nov-17 14:28N 57°12' W 001°60'0 0.0
2017-Nov-17 13:58N 57°12' W 001°60'0 0.0
2017-Nov-17 13:28N 57°12' W 001°60'1 2.9
2017-Nov-17 13:00N 57°10' W 001°59'3 6.9
2017-Nov-17 12:30N 57°09' W 002°05'0 0.7
2017-Nov-17 11:59N 57°09' W 002°05'0 0.0
2017-Nov-17 11:29N 57°09' W 002°05'0 0.0
2017-Nov-17 10:59N 57°09' W 002°05'0 0.0
2017-Nov-17 10:29N 57°09' W 002°05'0 0.0
2017-Nov-17 09:59N 57°09' W 002°05'0 0.0
2017-Nov-17 09:29N 57°09' W 002°05'0 0.0
2017-Nov-17 08:59N 57°09' W 002°05'0 0.0
2017-Nov-17 08:29N 57°09' W 002°05'0 0.0
2017-Nov-17 07:59N 57°09' W 002°05'0 0.0
2017-Nov-17 07:29N 57°09' W 002°05'0 0.0
2017-Nov-17 06:59N 57°09' W 002°05'0 0.0
2017-Nov-17 06:29N 57°09' W 002°05'0 0.0
2017-Nov-17 05:59N 57°09' W 002°05'0 0.0
2017-Nov-17 05:26N 57°09' W 002°05'0 0.0
2017-Nov-17 04:59N 57°09' W 002°05'0 0.0
2017-Nov-17 04:29N 57°09' W 002°05'0 0.0
2017-Nov-17 03:59N 57°09' W 002°05'0 0.0
2017-Nov-17 03:29N 57°09' W 002°05'0 0.0
2017-Nov-17 02:59N 57°09' W 002°05'0 0.0
2017-Nov-17 02:29N 57°09' W 002°05'0 0.0
2017-Nov-17 01:59N 57°09' W 002°05'0 0.0
2017-Nov-17 01:29N 57°09' W 002°05'0 0.0
2017-Nov-17 00:59N 57°09' W 002°05'0 0.0
2017-Nov-17 00:29N 57°09' W 002°05'0 0.0
2017-Nov-16 23:59N 57°09' W 002°05'0 0.0
2017-Nov-16 23:29N 57°09' W 002°05'0 0.0
2017-Nov-16 22:59N 57°09' W 002°05'0 0.0
2017-Nov-16 22:29N 57°09' W 002°05'0 0.0
2017-Nov-16 22:00N 57°09' W 002°05'2 3.5
2017-Nov-16 21:30N 57°09' W 002°02'4 8.7
2017-Nov-16 21:00N 57°12' W 001°56'510.8
2017-Nov-16 20:30N 57°16' W 001°50'12 9.6
2017-Nov-16 19:15N 57°26' W 001°36'  
2017-Nov-13 02:00N 57°09' W 002°05'0 0.0
2017-Nov-13 01:30N 57°09' W 002°05'0 0.0
2017-Nov-13 01:00N 57°09' W 002°05'0 0.0
2017-Nov-13 00:30N 57°09' W 002°05'0 0.0
2017-Nov-13 00:00N 57°09' W 002°05'0 0.0
2017-Nov-12 23:30N 57°09' W 002°05'0 0.0
2017-Nov-12 23:00N 57°09' W 002°05'0 0.0
2017-Nov-12 22:30N 57°09' W 002°05'0 0.0
2017-Nov-12 22:00N 57°09' W 002°05'  
Track history (hours):
 
Tides and Currents Weather Stations Pressure Air Temp Water Temp Dewpoint Dewpoint Depression Visibility Wind Speed Wind Dir Waves Ship Positions

Normand Flipper

Last reported at 2017-Nov-22 21:58 UTC. Time now 2017-Nov-22 22:13 UTC.
Position N 57°30' W 001°47'.

Length 89 m; draft 5 m.

Type: Other ship. MMSI: 566522000.

Date/timePositionNaut miles runAvg speedWind from/ knotsBaromVisibWave heightAir tempDewpointWater temp
2017-Nov-22 21:58N 57°30' W 001°47'0 0.0
2017-Nov-22 21:28N 57°30' W 001°47'0 0.0
2017-Nov-22 20:58N 57°30' W 001°47'0 0.0
2017-Nov-22 20:28N 57°30' W 001°47'0 0.0
2017-Nov-22 19:58N 57°30' W 001°47'0 0.0
2017-Nov-22 19:19N 57°30' W 001°47'  
2017-Nov-20 00:30N 57°26' W 001°45'0 0.0
2017-Nov-20 00:01N 57°26' W 001°45'0 0.0
2017-Nov-19 23:30N 57°26' W 001°45'0 0.0
2017-Nov-19 23:01N 57°26' W 001°45'0 0.0
2017-Nov-19 22:30N 57°26' W 001°45'0 0.0
2017-Nov-19 22:01N 57°26' W 001°45'1 1.2
2017-Nov-19 21:31N 57°26' W 001°45'3 6.2
2017-Nov-19 21:00N 57°23' W 001°46'4 7.0
2017-Nov-19 20:27N 57°19' W 001°49'3 7.6
2017-Nov-19 20:00N 57°16' W 001°52'4 7.9
2017-Nov-19 19:30N 57°13' W 001°55'4 7.3
2017-Nov-19 19:01N 57°10' W 002°00'3 5.8
2017-Nov-19 18:31N 57°08' W 002°05'0 0.3
2017-Nov-19 17:59N 57°08' W 002°05'0 0.0
2017-Nov-19 17:29N 57°08' W 002°05'0 0.0
2017-Nov-19 16:59N 57°08' W 002°05'0 0.0
2017-Nov-19 16:29N 57°08' W 002°05'0 0.0
2017-Nov-19 15:59N 57°08' W 002°05'0 0.0
2017-Nov-19 15:29N 57°08' W 002°05'0 0.0
2017-Nov-19 14:59N 57°08' W 002°05'0 0.5
2017-Nov-19 14:30N 57°08' W 002°04'3 6.0
2017-Nov-19 14:00N 57°10' W 002°00'1 1.0
2017-Nov-19 13:28N 57°11' W 001°60'1 1.4
2017-Nov-19 12:55N 57°12' W 001°60'0 0.1
2017-Nov-19 12:28N 57°12' W 001°60'0 0.0
2017-Nov-19 11:58N 57°12' W 001°60'0 0.0
2017-Nov-19 11:28N 57°12' W 001°60'0 0.0
2017-Nov-19 10:58N 57°12' W 001°60'0 0.0
2017-Nov-19 10:28N 57°12' W 001°60'0 0.0
2017-Nov-19 09:58N 57°12' W 001°60'0 0.0
2017-Nov-19 09:28N 57°12' W 001°60'0 0.0
2017-Nov-19 08:58N 57°12' W 001°60'0 0.0
2017-Nov-19 08:28N 57°12' W 001°60'0 0.0
2017-Nov-19 07:58N 57°12' W 001°60'0 0.0
2017-Nov-19 07:28N 57°12' W 001°60'0 0.0
2017-Nov-19 06:58N 57°12' W 001°60'0 0.0
2017-Nov-19 06:28N 57°12' W 001°60'0 0.0
2017-Nov-19 05:58N 57°12' W 001°60'0 0.0
2017-Nov-19 05:28N 57°12' W 001°60'0 0.0
2017-Nov-19 04:58N 57°12' W 001°60'0 0.0
2017-Nov-19 04:28N 57°12' W 001°60'0 0.0
2017-Nov-19 03:58N 57°12' W 001°60'0 0.1
2017-Nov-19 03:28N 57°12' W 001°60'0 0.1
2017-Nov-19 02:58N 57°12' W 001°60'0 0.0
2017-Nov-19 02:28N 57°12' W 001°60'0 0.0
2017-Nov-19 01:58N 57°12' W 001°60'0 0.0
2017-Nov-19 01:28N 57°12' W 001°60'0 0.0
2017-Nov-19 00:58N 57°12' W 001°60'0 0.0
2017-Nov-19 00:28N 57°12' W 001°60'0 0.0
2017-Nov-18 23:58N 57°12' W 001°60'0 0.0
2017-Nov-18 23:28N 57°12' W 001°60'0 0.0
2017-Nov-18 22:58N 57°12' W 001°60'0 0.0
2017-Nov-18 22:28N 57°12' W 001°60'0 0.0
2017-Nov-18 21:58N 57°12' W 001°60'0 0.0
2017-Nov-18 21:28N 57°12' W 001°60'0 0.0
2017-Nov-18 20:58N 57°12' W 001°60'0 0.0
2017-Nov-18 20:28N 57°12' W 001°60'0 0.0
2017-Nov-18 19:58N 57°12' W 001°60'0 0.1
2017-Nov-18 19:28N 57°12' W 001°60'0 0.0
2017-Nov-18 18:58N 57°12' W 001°60'0 0.0
2017-Nov-18 18:28N 57°12' W 001°60'0 0.0
2017-Nov-18 17:58N 57°12' W 001°60'0 0.0
2017-Nov-18 17:28N 57°12' W 001°60'0 0.0
2017-Nov-18 16:58N 57°12' W 001°60'0 0.0
2017-Nov-18 16:25N 57°12' W 001°60'0 0.0
2017-Nov-18 15:58N 57°12' W 001°60'0 0.0
2017-Nov-18 15:28N 57°12' W 001°60'0 0.0
2017-Nov-18 14:58N 57°12' W 001°60'0 0.0
2017-Nov-18 14:28N 57°12' W 001°60'0 0.1
2017-Nov-18 13:58N 57°12' W 001°60'0 0.0
2017-Nov-18 13:28N 57°12' W 001°60'0 0.0
2017-Nov-18 12:58N 57°12' W 001°60'0 0.0
2017-Nov-18 12:28N 57°12' W 001°60'0 0.0
2017-Nov-18 11:58N 57°12' W 001°60'0 0.0
2017-Nov-18 11:28N 57°12' W 001°60'0 0.0
2017-Nov-18 10:58N 57°12' W 001°60'0 0.0
2017-Nov-18 10:28N 57°12' W 001°60'0 0.0
2017-Nov-18 09:58N 57°12' W 001°60'0 0.0
2017-Nov-18 09:25N 57°12' W 001°60'0 0.1
2017-Nov-18 08:58N 57°12' W 001°60'0 0.0
2017-Nov-18 08:28N 57°12' W 001°60'0 0.1
2017-Nov-18 07:58N 57°12' W 001°60'0 0.0
2017-Nov-18 07:28N 57°12' W 001°60'0 0.0
2017-Nov-18 06:58N 57°12' W 001°60'0 0.0
2017-Nov-18 06:28N 57°12' W 001°60'0 0.0
2017-Nov-18 05:58N 57°12' W 001°60'0 0.0
2017-Nov-18 05:28N 57°12' W 001°60'0 0.0
2017-Nov-18 04:58N 57°12' W 001°60'0 0.0
2017-Nov-18 04:28N 57°12' W 001°60'0 0.0
2017-Nov-18 03:58N 57°12' W 001°60'0 0.0
2017-Nov-18 03:28N 57°12' W 001°60'0 0.0
2017-Nov-18 02:58N 57°12' W 001°60'0 0.0
2017-Nov-18 02:28N 57°12' W 001°60'0 0.1
2017-Nov-18 01:58N 57°12' W 001°60'0 0.1
2017-Nov-18 01:28N 57°12' W 001°60'0 0.0
2017-Nov-18 00:58N 57°12' W 001°60'0 0.0
2017-Nov-18 00:28N 57°12' W 001°60'0 0.0
2017-Nov-17 23:58N 57°12' W 001°60'0 0.0
2017-Nov-17 23:28N 57°12' W 001°60'0 0.0
2017-Nov-17 22:58N 57°12' W 001°60'0 0.0
2017-Nov-17 22:28N 57°12' W 001°60'0 0.0
2017-Nov-17 21:58N 57°12' W 001°60'0 0.0
2017-Nov-17 21:28N 57°12' W 001°60'0 0.0
2017-Nov-17 20:58N 57°12' W 001°60'0 0.0
2017-Nov-17 20:28N 57°12' W 001°60'0 0.0
2017-Nov-17 19:58N 57°12' W 001°60'0 0.0
2017-Nov-17 19:28N 57°12' W 001°60'0 0.0
2017-Nov-17 18:58N 57°12' W 001°60'0 0.0
2017-Nov-17 18:28N 57°12' W 001°60'0 0.0
2017-Nov-17 17:58N 57°12' W 001°60'0 0.0
2017-Nov-17 17:28N 57°12' W 001°60'0 0.0
2017-Nov-17 16:58N 57°12' W 001°60'0 0.0
2017-Nov-17 16:28N 57°12' W 001°60'0 0.0
2017-Nov-17 15:58N 57°12' W 001°60'0 0.0
2017-Nov-17 15:28N 57°12' W 001°60'0 0.0
2017-Nov-17 14:58N 57°12' W 001°60'0 0.0
2017-Nov-17 14:28N 57°12' W 001°60'0 0.0
2017-Nov-17 13:58N 57°12' W 001°60'0 0.0
2017-Nov-17 13:28N 57°12' W 001°60'1 2.9
2017-Nov-17 13:00N 57°10' W 001°59'3 6.9
2017-Nov-17 12:30N 57°09' W 002°05'0 0.7
2017-Nov-17 11:59N 57°09' W 002°05'0 0.0
2017-Nov-17 11:29N 57°09' W 002°05'0 0.0
2017-Nov-17 10:59N 57°09' W 002°05'0 0.0
2017-Nov-17 10:29N 57°09' W 002°05'0 0.0
2017-Nov-17 09:59N 57°09' W 002°05'0 0.0
2017-Nov-17 09:29N 57°09' W 002°05'0 0.0
2017-Nov-17 08:59N 57°09' W 002°05'0 0.0
2017-Nov-17 08:29N 57°09' W 002°05'0 0.0
2017-Nov-17 07:59N 57°09' W 002°05'0 0.0
2017-Nov-17 07:29N 57°09' W 002°05'0 0.0
2017-Nov-17 06:59N 57°09' W 002°05'0 0.0
2017-Nov-17 06:29N 57°09' W 002°05'0 0.0
2017-Nov-17 05:59N 57°09' W 002°05'0 0.0
2017-Nov-17 05:26N 57°09' W 002°05'0 0.0
2017-Nov-17 04:59N 57°09' W 002°05'0 0.0
2017-Nov-17 04:29N 57°09' W 002°05'0 0.0
2017-Nov-17 03:59N 57°09' W 002°05'0 0.0
2017-Nov-17 03:29N 57°09' W 002°05'0 0.0
2017-Nov-17 02:59N 57°09' W 002°05'0 0.0
2017-Nov-17 02:29N 57°09' W 002°05'0 0.0
2017-Nov-17 01:59N 57°09' W 002°05'0 0.0
2017-Nov-17 01:29N 57°09' W 002°05'0 0.0
2017-Nov-17 00:59N 57°09' W 002°05'0 0.0
2017-Nov-17 00:29N 57°09' W 002°05'0 0.0
2017-Nov-16 23:59N 57°09' W 002°05'0 0.0
2017-Nov-16 23:29N 57°09' W 002°05'0 0.0
2017-Nov-16 22:59N 57°09' W 002°05'0 0.0
2017-Nov-16 22:29N 57°09' W 002°05'0 0.0
2017-Nov-16 22:00N 57°09' W 002°05'2 3.5
2017-Nov-16 21:30N 57°09' W 002°02'4 8.7
2017-Nov-16 21:00N 57°12' W 001°56'510.8
2017-Nov-16 20:30N 57°16' W 001°50'12 9.6
2017-Nov-16 19:15N 57°26' W 001°36'  
2017-Nov-13 02:00N 57°09' W 002°05'0 0.0
2017-Nov-13 01:30N 57°09' W 002°05'0 0.0
2017-Nov-13 01:00N 57°09' W 002°05'0 0.0
2017-Nov-13 00:30N 57°09' W 002°05'0 0.0
2017-Nov-13 00:00N 57°09' W 002°05'0 0.0
2017-Nov-12 23:30N 57°09' W 002°05'0 0.0
2017-Nov-12 23:00N 57°09' W 002°05'0 0.0
2017-Nov-12 22:30N 57°09' W 002°05'0 0.0
2017-Nov-12 22:00N 57°09' W 002°05'  

Dump ship's entire track history